ESCF/LPI METAR and TAF weather

Enter ICAO airport designator
Station Type Date Time Source
ESCF METAR 2019/04/26 03:20 UTC NOAA

ESCF 260320Z AUTO 01003KT 9999 NCD 05/03 Q1016


Station Type Date Time Source
ESCF Decoded METAR 2019/04/26 03:20 UTC NOAA

Linkoping / Malmen, Sweden (ESCF) 58-24N 015-31E 117M
Apr 25, 2019 - 11:20 PM EDT / 2019.04.26 0320 UTC
Wind: from the N (010 degrees) at 3 MPH (3 KT):0
Visibility: greater than 7 mile(s):0
Temperature: 41 F (5 C)
Dew Point: 37 F (3 C)
Relative Humidity: 86%
Pressure (altimeter): 30.00 in. Hg (1016 hPa)
ob: ESCF 260320Z AUTO 01003KT 9999 NCD 05/03 Q1016
cycle: 3

Station Type Date Time Source
ESCF TAF UTC NOAA

Error!

Example: see airport list